sensor_id;sensor_type;location;lat;lon;timestamp;pressure;altitude;pressure_sealevel;temperature;humidity
25430;BME280;13360;48.152;-1.788;2023-01-31T00:01:22;103304.41;;;9.66;100.00
25430;BME280;13360;48.152;-1.788;2023-01-31T00:04:01;103300.19;;;9.64;100.00
25430;BME280;13360;48.152;-1.788;2023-01-31T00:06:30;103292.13;;;9.62;100.00
25430;BME280;13360;48.152;-1.788;2023-01-31T00:08:56;103292.75;;;9.64;100.00
25430;BME280;13360;48.152;-1.788;2023-01-31T00:11:24;103290.00;;;9.64;100.00
25430;BME280;13360;48.152;-1.788;2023-01-31T00:13:50;103293.59;;;9.65;100.00
25430;BME280;13360;48.152;-1.788;2023-01-31T00:16:16;103293.22;;;9.61;100.00
25430;BME280;13360;48.152;-1.788;2023-01-31T00:18:43;103282.16;;;9.61;100.00
25430;BME280;13360;48.152;-1.788;2023-01-31T00:21:11;103287.06;;;9.59;100.00
25430;BME280;13360;48.152;-1.788;2023-01-31T00:23:38;103273.03;;;9.61;100.00
25430;BME280;13360;48.152;-1.788;2023-01-31T00:28:47;103282.16;;;9.61;100.00
25430;BME280;13360;48.152;-1.788;2023-01-31T00:31:13;103284.31;;;9.59;100.00
25430;BME280;13360;48.152;-1.788;2023-01-31T00:33:41;103284.69;;;9.63;100.00
25430;BME280;13360;48.152;-1.788;2023-01-31T00:36:12;103278.09;;;9.64;100.00
25430;BME280;13360;48.152;-1.788;2023-01-31T00:38:38;103272.44;;;9.59;100.00
25430;BME280;13360;48.152;-1.788;2023-01-31T00:41:04;103277.31;;;9.57;100.00
25430;BME280;13360;48.152;-1.788;2023-01-31T00:43:31;103273.88;;;9.61;100.00
25430;BME280;13360;48.152;-1.788;2023-01-31T00:45:56;103280.03;;;9.63;100.00
25430;BME280;13360;48.152;-1.788;2023-01-31T00:48:22;103268.97;;;9.63;100.00
25430;BME280;13360;48.152;-1.788;2023-01-31T00:50:47;103270.66;;;9.64;100.00
25430;BME280;13360;48.152;-1.788;2023-01-31T00:53:13;103266.22;;;9.63;100.00
25430;BME280;13360;48.152;-1.788;2023-01-31T00:55:38;103261.53;;;9.64;100.00
25430;BME280;13360;48.152;-1.788;2023-01-31T00:58:04;103268.97;;;9.63;100.00
25430;BME280;13360;48.152;-1.788;2023-01-31T01:00:29;103264.31;;;9.64;100.00
25430;BME280;13360;48.152;-1.788;2023-01-31T01:02:55;103253.97;;;9.59;100.00
25430;BME280;13360;48.152;-1.788;2023-01-31T01:05:20;103255.88;;;9.59;100.00
25430;BME280;13360;48.152;-1.788;2023-01-31T01:07:45;103239.53;;;9.57;100.00
25430;BME280;13360;48.152;-1.788;2023-01-31T01:10:11;103250.34;;;9.59;100.00
25430;BME280;13360;48.152;-1.788;2023-01-31T01:12:37;103240.16;;;9.59;100.00
25430;BME280;13360;48.152;-1.788;2023-01-31T01:15:02;103237.16;;;9.61;100.00
25430;BME280;13360;48.152;-1.788;2023-01-31T01:17:28;103233.94;;;9.64;100.00
25430;BME280;13360;48.152;-1.788;2023-01-31T01:19:53;103229.50;;;9.63;100.00
25430;BME280;13360;48.152;-1.788;2023-01-31T01:22:19;103225.91;;;9.62;100.00
25430;BME280;13360;48.152;-1.788;2023-01-31T01:24:44;103219.78;;;9.60;100.00
25430;BME280;13360;48.152;-1.788;2023-01-31T01:27:11;103221.59;;;9.48;100.00
25430;BME280;13360;48.152;-1.788;2023-01-31T01:29:37;103225.66;;;9.45;100.00
25430;BME280;13360;48.152;-1.788;2023-01-31T01:32:03;103233.09;;;9.45;100.00
25430;BME280;13360;48.152;-1.788;2023-01-31T01:34:29;103249.19;;;9.48;100.00
25430;BME280;13360;48.152;-1.788;2023-01-31T01:36:54;103257.63;;;9.53;100.00
25430;BME280;13360;48.152;-1.788;2023-01-31T01:39:20;103256.31;;;9.56;100.00
25430;BME280;13360;48.152;-1.788;2023-01-31T01:41:45;103257.16;;;9.56;100.00
25430;BME280;13360;48.152;-1.788;2023-01-31T01:44:42;103271.19;;;9.55;100.00
25430;BME280;13360;48.152;-1.788;2023-01-31T01:47:39;103282.44;;;9.53;100.00
25430;BME280;13360;48.152;-1.788;2023-01-31T01:50:21;103279.31;;;9.50;100.00
25430;BME280;13360;48.152;-1.788;2023-01-31T01:53:01;103291.66;;;9.47;100.00
25430;BME280;13360;48.152;-1.788;2023-01-31T01:55:38;103292.94;;;9.44;100.00
25430;BME280;13360;48.152;-1.788;2023-01-31T01:58:13;103291.31;;;9.37;100.00
25430;BME280;13360;48.152;-1.788;2023-01-31T02:00:41;103300.50;;;9.31;100.00
25430;BME280;13360;48.152;-1.788;2023-01-31T02:03:07;103321.44;;;9.38;100.00
25430;BME280;13360;48.152;-1.788;2023-01-31T02:05:43;103325.66;;;9.41;100.00
25430;BME280;13360;48.152;-1.788;2023-01-31T02:08:11;103329.03;;;9.43;100.00
25430;BME280;13360;48.152;-1.788;2023-01-31T02:10:48;103331.81;;;9.43;100.00
25430;BME280;13360;48.152;-1.788;2023-01-31T02:13:17;103341.31;;;9.47;100.00
25430;BME280;13360;48.152;-1.788;2023-01-31T02:15:43;103347.44;;;9.49;100.00
25430;BME280;13360;48.152;-1.788;2023-01-31T02:18:09;103348.28;;;9.50;100.00
25430;BME280;13360;48.152;-1.788;2023-01-31T02:23:30;103364.00;;;9.49;100.00
25430;BME280;13360;48.152;-1.788;2023-01-31T02:29:27;103367.22;;;9.46;100.00
25430;BME280;13360;48.152;-1.788;2023-01-31T02:34:55;103382.69;;;9.47;100.00
25430;BME280;13360;48.152;-1.788;2023-01-31T02:40:26;103387.59;;;9.45;100.00
25430;BME280;13360;48.152;-1.788;2023-01-31T02:42:58;103387.81;;;9.43;100.00
25430;BME280;13360;48.152;-1.788;2023-01-31T02:45:39;103396.72;;;9.45;100.00
25430;BME280;13360;48.152;-1.788;2023-01-31T02:51:23;103412.81;;;9.48;100.00
25430;BME280;13360;48.152;-1.788;2023-01-31T02:53:55;103418.78;;;9.45;100.00
25430;BME280;13360;48.152;-1.788;2023-01-31T02:56:29;103419.00;;;9.44;100.00
25430;BME280;13360;48.152;-1.788;2023-01-31T02:58:59;103426.22;;;9.45;100.00
25430;BME280;13360;48.152;-1.788;2023-01-31T03:01:30;103431.75;;;9.45;100.00
25430;BME280;13360;48.152;-1.788;2023-01-31T03:03:58;103435.34;;;9.45;100.00
25430;BME280;13360;48.152;-1.788;2023-01-31T03:09:03;103447.22;;;9.46;100.00
25430;BME280;13360;48.152;-1.788;2023-01-31T03:14:18;103449.38;;;9.44;100.00
25430;BME280;13360;48.152;-1.788;2023-01-31T03:16:58;103446.59;;;9.44;100.00
25430;BME280;13360;48.152;-1.788;2023-01-31T03:19:57;103453.81;;;9.45;100.00
25430;BME280;13360;48.152;-1.788;2023-01-31T03:22:27;103458.03;;;9.47;100.00
25430;BME280;13360;48.152;-1.788;2023-01-31T03:24:54;103452.06;;;9.51;100.00
25430;BME280;13360;48.152;-1.788;2023-01-31T03:27:21;103455.06;;;9.49;100.00
25430;BME280;13360;48.152;-1.788;2023-01-31T03:29:48;103455.50;;;9.46;100.00
25430;BME280;13360;48.152;-1.788;2023-01-31T03:32:20;103452.75;;;9.46;100.00
25430;BME280;13360;48.152;-1.788;2023-01-31T03:34:47;103455.50;;;9.46;100.00
25430;BME280;13360;48.152;-1.788;2023-01-31T03:39:59;103463.16;;;9.44;100.00
25430;BME280;13360;48.152;-1.788;2023-01-31T03:47:38;103455.34;;;9.41;100.00
25430;BME280;13360;48.152;-1.788;2023-01-31T03:50:09;103449.19;;;9.39;100.00
25430;BME280;13360;48.152;-1.788;2023-01-31T03:52:40;103451.50;;;9.42;100.00
25430;BME280;13360;48.152;-1.788;2023-01-31T03:55:15;103454.03;;;9.43;100.00
25430;BME280;13360;48.152;-1.788;2023-01-31T03:57:45;103451.28;;;9.43;100.00
25430;BME280;13360;48.152;-1.788;2023-01-31T04:00:15;103456.56;;;9.45;100.00
25430;BME280;13360;48.152;-1.788;2023-01-31T04:02:43;103447.69;;;9.43;100.00
25430;BME280;13360;48.152;-1.788;2023-01-31T04:05:20;103450.44;;;9.43;100.00
25430;BME280;13360;48.152;-1.788;2023-01-31T04:07:46;103446.84;;;9.42;100.00
25430;BME280;13360;48.152;-1.788;2023-01-31T04:10:14;103447.22;;;9.46;100.00
25430;BME280;13360;48.152;-1.788;2023-01-31T04:12:41;103445.53;;;9.45;100.00
25430;BME280;13360;48.152;-1.788;2023-01-31T04:15:07;103441.09;;;9.44;100.00
25430;BME280;13360;48.152;-1.788;2023-01-31T04:17:33;103454.66;;;9.45;100.00
25430;BME280;13360;48.152;-1.788;2023-01-31T04:19:58;103455.06;;;9.49;100.00
25430;BME280;13360;48.152;-1.788;2023-01-31T04:22:24;103462.25;;;9.50;100.00
25430;BME280;13360;48.152;-1.788;2023-01-31T04:24:49;103456.13;;;9.48;100.00
25430;BME280;13360;48.152;-1.788;2023-01-31T04:27:15;103456.34;;;9.46;100.00
25430;BME280;13360;48.152;-1.788;2023-01-31T04:29:40;103451.06;;;9.45;100.00
25430;BME280;13360;48.152;-1.788;2023-01-31T04:32:05;103434.72;;;9.43;100.00
25430;BME280;13360;48.152;-1.788;2023-01-31T04:34:31;103438.56;;;9.42;100.00
25430;BME280;13360;48.152;-1.788;2023-01-31T04:36:56;103436.88;;;9.41;100.00
25430;BME280;13360;48.152;-1.788;2023-01-31T04:39:21;103422.22;;;9.41;100.00
25430;BME280;13360;48.152;-1.788;2023-01-31T04:41:47;103416.47;;;9.42;100.00
25430;BME280;13360;48.152;-1.788;2023-01-31T04:44:12;103398.47;;;9.40;100.00
25430;BME280;13360;48.152;-1.788;2023-01-31T04:46:38;103378.53;;;9.38;100.00
25430;BME280;13360;48.152;-1.788;2023-01-31T04:49:03;103373.88;;;9.38;100.00
25430;BME280;13360;48.152;-1.788;2023-01-31T04:51:28;103369.41;;;9.37;100.00
25430;BME280;13360;48.152;-1.788;2023-01-31T04:53:54;103377.47;;;9.39;100.00
25430;BME280;13360;48.152;-1.788;2023-01-31T04:56:19;103368.13;;;9.40;100.00
25430;BME280;13360;48.152;-1.788;2023-01-31T04:58:45;103373.63;;;9.40;100.00
25430;BME280;13360;48.152;-1.788;2023-01-31T05:01:10;103376.63;;;9.38;100.00
25430;BME280;13360;48.152;-1.788;2023-01-31T05:03:36;103371.94;;;9.39;100.00
25430;BME280;13360;48.152;-1.788;2023-01-31T05:06:01;103358.81;;;9.34;100.00
25430;BME280;13360;48.152;-1.788;2023-01-31T05:08:26;103343.94;;;9.35;100.00
25430;BME280;13360;48.152;-1.788;2023-01-31T05:11:02;103344.78;;;9.36;100.00
25430;BME280;13360;48.152;-1.788;2023-01-31T05:13:28;103355.81;;;9.36;100.00
25430;BME280;13360;48.152;-1.788;2023-01-31T05:15:56;103356.47;;;9.38;100.00
25430;BME280;13360;48.152;-1.788;2023-01-31T05:18:25;103353.72;;;9.38;100.00
25430;BME280;13360;48.152;-1.788;2023-01-31T05:20:50;103344.78;;;9.36;100.00
25430;BME280;13360;48.152;-1.788;2023-01-31T05:23:16;103357.50;;;9.37;100.00
25430;BME280;13360;48.152;-1.788;2023-01-31T05:25:43;103360.06;;;9.38;100.00
25430;BME280;13360;48.152;-1.788;2023-01-31T05:28:09;103360.91;;;9.39;100.00
25430;BME280;13360;48.152;-1.788;2023-01-31T05:30:35;103357.09;;;9.40;100.00
25430;BME280;13360;48.152;-1.788;2023-01-31T05:33:00;103356.25;;;9.39;100.00
25430;BME280;13360;48.152;-1.788;2023-01-31T05:35:25;103351.16;;;9.36;100.00
25430;BME280;13360;48.152;-1.788;2023-01-31T05:37:54;103352.00;;;9.37;100.00
25430;BME280;13360;48.152;-1.788;2023-01-31T05:40:20;103357.50;;;9.37;100.00
25430;BME280;13360;48.152;-1.788;2023-01-31T05:42:52;103361.34;;;9.36;100.00
25430;BME280;13360;48.152;-1.788;2023-01-31T05:45:18;103363.03;;;9.37;100.00
25430;BME280;13360;48.152;-1.788;2023-01-31T05:47:45;103366.84;;;9.36;100.00
25430;BME280;13360;48.152;-1.788;2023-01-31T05:50:11;103368.53;;;9.37;100.00
25430;BME280;13360;48.152;-1.788;2023-01-31T05:52:36;103378.53;;;9.38;100.00
25430;BME280;13360;48.152;-1.788;2023-01-31T05:55:01;103391.25;;;9.39;100.00
25430;BME280;13360;48.152;-1.788;2023-01-31T05:57:27;103390.41;;;9.38;100.00
25430;BME280;13360;48.152;-1.788;2023-01-31T05:59:52;103383.00;;;9.39;100.00
25430;BME280;13360;48.152;-1.788;2023-01-31T06:02:18;103383.81;;;9.39;100.00
25430;BME280;13360;48.152;-1.788;2023-01-31T06:04:43;103366.66;;;9.37;100.00
25430;BME280;13360;48.152;-1.788;2023-01-31T06:07:08;103379.59;;;9.37;100.00
25430;BME280;13360;48.152;-1.788;2023-01-31T06:09:34;103390.63;;;9.37;100.00
25430;BME280;13360;48.152;-1.788;2023-01-31T06:11:59;103387.84;;;9.37;100.00
25430;BME280;13360;48.152;-1.788;2023-01-31T06:14:24;103371.53;;;9.35;100.00
25430;BME280;13360;48.152;-1.788;2023-01-31T06:16:50;103375.97;;;9.36;100.00
25430;BME280;13360;48.152;-1.788;2023-01-31T06:19:15;103377.28;;;9.34;100.00
25430;BME280;13360;48.152;-1.788;2023-01-31T06:21:40;103377.88;;;9.36;100.00
25430;BME280;13360;48.152;-1.788;2023-01-31T06:24:06;103395.28;;;9.36;100.00
25430;BME280;13360;48.152;-1.788;2023-01-31T06:26:31;103399.13;;;9.35;100.00
25430;BME280;13360;48.152;-1.788;2023-01-31T06:28:57;103401.88;;;9.35;100.00
25430;BME280;13360;48.152;-1.788;2023-01-31T06:31:23;103404.63;;;9.35;100.00
25430;BME280;13360;48.152;-1.788;2023-01-31T06:33:48;103422.88;;;9.36;100.00
25430;BME280;13360;48.152;-1.788;2023-01-31T06:36:15;103423.53;;;9.38;100.00
25430;BME280;13360;48.152;-1.788;2023-01-31T06:38:41;103412.69;;;9.37;100.00
25430;BME280;13360;48.152;-1.788;2023-01-31T06:41:06;103417.34;;;9.36;100.00
25430;BME280;13360;48.152;-1.788;2023-01-31T06:43:31;103424.59;;;9.37;100.00
25430;BME280;13360;48.152;-1.788;2023-01-31T06:45:57;103420.75;;;9.38;100.00
25430;BME280;13360;48.152;-1.788;2023-01-31T06:48:22;103417.78;;;9.40;100.00
25430;BME280;13360;48.152;-1.788;2023-01-31T06:50:47;103410.56;;;9.39;100.00
25430;BME280;13360;48.152;-1.788;2023-01-31T06:53:13;103409.31;;;9.35;100.00
25430;BME280;13360;48.152;-1.788;2023-01-31T06:55:38;103386.16;;;9.36;100.00
25430;BME280;13360;48.152;-1.788;2023-01-31T06:58:03;103383.00;;;9.39;100.00
25430;BME280;13360;48.152;-1.788;2023-01-31T07:00:29;103374.72;;;9.39;100.00
25430;BME280;13360;48.152;-1.788;2023-01-31T07:02:55;103365.59;;;9.38;100.00
25430;BME280;13360;48.152;-1.788;2023-01-31T07:05:21;103367.28;;;9.39;100.00
25430;BME280;13360;48.152;-1.788;2023-01-31T07:07:46;103368.97;;;9.40;100.00
25430;BME280;13360;48.152;-1.788;2023-01-31T07:10:12;103363.44;;;9.40;100.00
25430;BME280;13360;48.152;-1.788;2023-01-31T07:12:38;103369.59;;;9.42;100.00
25430;BME280;13360;48.152;-1.788;2023-01-31T07:15:04;103364.28;;;9.41;100.00
25430;BME280;13360;48.152;-1.788;2023-01-31T07:17:29;103363.44;;;9.40;100.00
25430;BME280;13360;48.152;-1.788;2023-01-31T07:19:54;103364.75;;;9.38;100.00
25430;BME280;13360;48.152;-1.788;2023-01-31T07:22:20;103366.44;;;9.39;100.00
25430;BME280;13360;48.152;-1.788;2023-01-31T07:24:45;103362.59;;;9.40;100.00
25430;BME280;13360;48.152;-1.788;2023-01-31T07:27:14;103362.16;;;9.43;100.00
25430;BME280;13360;48.152;-1.788;2023-01-31T07:29:39;103364.91;;;9.43;100.00
25430;BME280;13360;48.152;-1.788;2023-01-31T07:32:04;103362.16;;;9.43;100.00
25430;BME280;13360;48.152;-1.788;2023-01-31T07:34:30;103352.81;;;9.44;100.00
25430;BME280;13360;48.152;-1.788;2023-01-31T07:36:55;103366.81;;;9.42;100.00
25430;BME280;13360;48.152;-1.788;2023-01-31T07:39:21;103364.28;;;9.41;100.00
25430;BME280;13360;48.152;-1.788;2023-01-31T07:41:47;103362.59;;;9.40;100.00
25430;BME280;13360;48.152;-1.788;2023-01-31T07:44:13;103366.44;;;9.39;100.00
25430;BME280;13360;48.152;-1.788;2023-01-31T07:46:39;103361.75;;;9.39;100.00
25430;BME280;13360;48.152;-1.788;2023-01-31T07:49:05;103359.84;;;9.40;100.00
25430;BME280;13360;48.152;-1.788;2023-01-31T07:51:30;103363.00;;;9.43;100.00
25430;BME280;13360;48.152;-1.788;2023-01-31T07:53:55;103362.16;;;9.43;100.00
25430;BME280;13360;48.152;-1.788;2023-01-31T07:56:21;103360.06;;;9.38;100.00
25430;BME280;13360;48.152;-1.788;2023-01-31T07:58:48;103363.91;;;9.37;100.00
25430;BME280;13360;48.152;-1.788;2023-01-31T08:01:16;103354.97;;;9.35;100.00
25430;BME280;13360;48.152;-1.788;2023-01-31T08:04:00;103386.59;;;9.39;100.00
25430;BME280;13360;48.152;-1.788;2023-01-31T08:06:28;103394.63;;;9.41;100.00
25430;BME280;13360;48.152;-1.788;2023-01-31T08:08:55;103407.59;;;9.40;100.00
25430;BME280;13360;48.152;-1.788;2023-01-31T08:11:20;103402.91;;;9.41;100.00
25430;BME280;13360;48.152;-1.788;2023-01-31T08:13:46;103415.63;;;9.42;100.00
25430;BME280;13360;48.152;-1.788;2023-01-31T08:16:12;103412.50;;;9.38;100.00
25430;BME280;13360;48.152;-1.788;2023-01-31T08:18:37;103419.69;;;9.39;100.00
25430;BME280;13360;48.152;-1.788;2023-01-31T08:21:04;103425.84;;;9.41;100.00
25430;BME280;13360;48.152;-1.788;2023-01-31T08:23:30;103427.53;;;9.42;100.00
25430;BME280;13360;48.152;-1.788;2023-01-31T08:26:03;103428.97;;;9.45;100.00
25430;BME280;13360;48.152;-1.788;2023-01-31T08:28:29;103429.59;;;9.47;100.00
25430;BME280;13360;48.152;-1.788;2023-01-31T08:30:55;103428.31;;;9.50;100.00
25430;BME280;13360;48.152;-1.788;2023-01-31T08:33:21;103428.31;;;9.50;100.00
25430;BME280;13360;48.152;-1.788;2023-01-31T08:35:47;103445.69;;;9.50;100.00
25430;BME280;13360;48.152;-1.788;2023-01-31T08:38:12;103455.06;;;9.49;100.00
25430;BME280;13360;48.152;-1.788;2023-01-31T08:40:37;103460.56;;;9.49;100.00
25430;BME280;13360;48.152;-1.788;2023-01-31T08:43:03;103466.72;;;9.51;100.00
25430;BME280;13360;48.152;-1.788;2023-01-31T08:45:29;103463.31;;;9.49;100.00
25430;BME280;13360;48.152;-1.788;2023-01-31T08:47:59;103473.28;;;9.50;100.00
25430;BME280;13360;48.152;-1.788;2023-01-31T08:50:26;103485.56;;;9.54;100.00
25430;BME280;13360;48.152;-1.788;2023-01-31T08:52:53;103486.63;;;9.60;100.00
25430;BME280;13360;48.152;-1.788;2023-01-31T08:55:19;103488.31;;;9.61;100.00
25430;BME280;13360;48.152;-1.788;2023-01-31T08:57:44;103498.28;;;9.62;100.00
25430;BME280;13360;48.152;-1.788;2023-01-31T09:00:10;103511.00;;;9.63;100.00
25430;BME280;13360;48.152;-1.788;2023-01-31T09:02:36;103507.16;;;9.64;100.00
25430;BME280;13360;48.152;-1.788;2023-01-31T09:05:01;103502.03;;;9.67;100.00
25430;BME280;13360;48.152;-1.788;2023-01-31T09:07:26;103497.59;;;9.66;100.00
25430;BME280;13360;48.152;-1.788;2023-01-31T09:09:52;103489.47;;;9.71;100.00
25430;BME280;13360;48.152;-1.788;2023-01-31T09:12:17;103498.78;;;9.77;100.00
25430;BME280;13360;48.152;-1.788;2023-01-31T09:14:42;103504.19;;;9.90;100.00
25430;BME280;13360;48.152;-1.788;2023-01-31T09:17:08;103514.56;;;9.95;100.00
25430;BME280;13360;48.152;-1.788;2023-01-31T09:19:35;103494.16;;;9.96;100.00
25430;BME280;13360;48.152;-1.788;2023-01-31T09:22:00;103467.00;;;9.93;100.00
25430;BME280;13360;48.152;-1.788;2023-01-31T09:24:26;103446.81;;;9.92;100.00
25430;BME280;13360;48.152;-1.788;2023-01-31T09:26:51;103440.00;;;9.95;100.00
25430;BME280;13360;48.152;-1.788;2023-01-31T09:29:18;103440.38;;;9.98;100.00
25430;BME280;13360;48.152;-1.788;2023-01-31T09:31:43;103437.19;;;10.01;100.00
25430;BME280;13360;48.152;-1.788;2023-01-31T09:34:09;103430.38;;;10.04;100.00
25430;BME280;13360;48.152;-1.788;2023-01-31T09:36:34;103447.09;;;10.09;100.00
25430;BME280;13360;48.152;-1.788;2023-01-31T09:38:59;103467.56;;;10.20;100.00
25430;BME280;13360;48.152;-1.788;2023-01-31T09:44:30;103436.72;;;10.29;100.00
25430;BME280;13360;48.152;-1.788;2023-01-31T09:47:10;103439.09;;;10.26;100.00
25430;BME280;13360;48.152;-1.788;2023-01-31T09:49:50;103414.09;;;10.21;100.00
25430;BME280;13360;48.152;-1.788;2023-01-31T09:52:17;103435.88;;;10.47;100.00
25430;BME280;13360;48.152;-1.788;2023-01-31T09:54:44;103420.97;;;10.66;100.00
25430;BME280;13360;48.152;-1.788;2023-01-31T09:59:48;103426.00;;;10.88;100.00
25430;BME280;13360;48.152;-1.788;2023-01-31T10:02:28;103422.59;;;11.04;100.00
25430;BME280;13360;48.152;-1.788;2023-01-31T10:05:05;103423.22;;;11.18;100.00
25430;BME280;13360;48.152;-1.788;2023-01-31T10:12:58;103402.09;;;11.35;100.00
25430;BME280;13360;48.152;-1.788;2023-01-31T10:15:46;103392.09;;;11.34;100.00
25430;BME280;13360;48.152;-1.788;2023-01-31T10:18:20;103384.00;;;11.21;100.00
25430;BME280;13360;48.152;-1.788;2023-01-31T10:21:03;103378.34;;;11.16;100.00
25430;BME280;13360;48.152;-1.788;2023-01-31T10:23:51;103384.25;;;11.19;100.00
25430;BME280;13360;48.152;-1.788;2023-01-31T10:26:22;103368.47;;;11.08;100.00
25430;BME280;13360;48.152;-1.788;2023-01-31T10:29:16;103363.44;;;11.17;100.00
25430;BME280;13360;48.152;-1.788;2023-01-31T10:31:58;103365.34;;;11.16;100.00
25430;BME280;13360;48.152;-1.788;2023-01-31T10:34:28;103361.50;;;11.06;100.00
25430;BME280;13360;48.152;-1.788;2023-01-31T10:37:14;103354.16;;;11.11;100.00
25430;BME280;13360;48.152;-1.788;2023-01-31T10:39:44;103352.34;;;11.17;100.00
25430;BME280;13360;48.152;-1.788;2023-01-31T10:42:13;103358.00;;;11.22;100.00
25430;BME280;13360;48.152;-1.788;2023-01-31T10:44:44;103353.09;;;11.24;100.00
25430;BME280;13360;48.152;-1.788;2023-01-31T10:47:15;103347.94;;;11.27;100.00
25430;BME280;13360;48.152;-1.788;2023-01-31T10:49:48;103364.06;;;11.30;100.00
25430;BME280;13360;48.152;-1.788;2023-01-31T10:52:16;103351.56;;;11.28;100.00
25430;BME280;13360;48.152;-1.788;2023-01-31T10:57:40;103377.19;;;11.35;100.00
25430;BME280;13360;48.152;-1.788;2023-01-31T11:00:17;103370.09;;;11.39;100.00
25430;BME280;13360;48.152;-1.788;2023-01-31T11:02:43;103377.47;;;11.45;100.00
25430;BME280;13360;48.152;-1.788;2023-01-31T11:05:15;103369.75;;;11.47;100.00
25430;BME280;13360;48.152;-1.788;2023-01-31T11:07:42;103373.25;;;11.54;100.00
25430;BME280;13360;48.152;-1.788;2023-01-31T11:10:27;103373.34;;;11.59;100.00
25430;BME280;13360;48.152;-1.788;2023-01-31T11:13:01;103374.19;;;11.60;100.00
25430;BME280;13360;48.152;-1.788;2023-01-31T11:15:34;103373.72;;;11.63;100.00
25430;BME280;13360;48.152;-1.788;2023-01-31T11:18:00;103361.78;;;11.63;100.00
25430;BME280;13360;48.152;-1.788;2023-01-31T11:20:35;103356.75;;;11.59;100.00
25430;BME280;13360;48.152;-1.788;2023-01-31T11:23:04;103340.03;;;11.54;100.00
25430;BME280;13360;48.152;-1.788;2023-01-31T11:25:31;103319.09;;;11.47;100.00
25430;BME280;13360;48.152;-1.788;2023-01-31T11:28:00;103327.13;;;11.60;100.00
25430;BME280;13360;48.152;-1.788;2023-01-31T11:32:51;103353.63;;;11.68;100.00
25430;BME280;13360;48.152;-1.788;2023-01-31T11:40:28;103330.66;;;11.67;100.00
25430;BME280;13360;48.152;-1.788;2023-01-31T11:43:01;103330.66;;;11.79;100.00
25430;BME280;13360;48.152;-1.788;2023-01-31T11:45:31;103302.13;;;11.67;100.00
25430;BME280;13360;48.152;-1.788;2023-01-31T11:48:05;103300.03;;;11.62;100.00
25430;BME280;13360;48.152;-1.788;2023-01-31T11:50:38;103289.47;;;11.59;100.00
25430;BME280;13360;48.152;-1.788;2023-01-31T11:53:20;103286.94;;;11.57;100.00
25430;BME280;13360;48.152;-1.788;2023-01-31T11:55:48;103290.91;;;11.61;100.00
25430;BME280;13360;48.152;-1.788;2023-01-31T11:58:29;103305.47;;;11.69;100.00
25430;BME280;13360;48.152;-1.788;2023-01-31T12:03:28;103307.16;;;11.70;100.00
25430;BME280;13360;48.152;-1.788;2023-01-31T12:06:25;103311.03;;;11.69;100.00
25430;BME280;13360;48.152;-1.788;2023-01-31T12:08:53;103305.94;;;11.66;100.00
25430;BME280;13360;48.152;-1.788;2023-01-31T12:11:33;103301.03;;;11.68;100.00
25430;BME280;13360;48.152;-1.788;2023-01-31T12:14:08;103306.31;;;11.69;100.00
25430;BME280;13360;48.152;-1.788;2023-01-31T12:16:37;103320.50;;;11.73;100.00
25430;BME280;13360;48.152;-1.788;2023-01-31T12:26:45;103320.50;;;11.73;100.00
25430;BME280;13360;48.152;-1.788;2023-01-31T12:37:13;103329.19;;;11.76;100.00
25430;BME280;13360;48.152;-1.788;2023-01-31T12:53:29;103350.88;;;11.79;100.00
25430;BME280;13360;48.152;-1.788;2023-01-31T12:58:41;103347.13;;;11.85;100.00
25430;BME280;13360;48.152;-1.788;2023-01-31T13:01:18;103334.13;;;11.86;100.00
25430;BME280;13360;48.152;-1.788;2023-01-31T13:04:11;103322.09;;;11.80;100.00
25430;BME280;13360;48.152;-1.788;2023-01-31T13:06:44;103338.72;;;11.92;100.00
25430;BME280;13360;48.152;-1.788;2023-01-31T13:09:19;103343.75;;;11.95;100.00
25430;BME280;13360;48.152;-1.788;2023-01-31T13:11:53;103353.50;;;12.09;100.00
25430;BME280;13360;48.152;-1.788;2023-01-31T13:14:23;103361.44;;;12.17;100.00
25430;BME280;13360;48.152;-1.788;2023-01-31T13:17:02;103352.47;;;12.27;100.00
25430;BME280;13360;48.152;-1.788;2023-01-31T13:22:28;103325.59;;;12.28;100.00
25430;BME280;13360;48.152;-1.788;2023-01-31T13:25:19;103351.16;;;12.30;100.00
25430;BME280;13360;48.152;-1.788;2023-01-31T13:28:22;103338.41;;;12.29;100.00
25430;BME280;13360;48.152;-1.788;2023-01-31T13:30:58;103346.47;;;12.30;100.00
25430;BME280;13360;48.152;-1.788;2023-01-31T13:34:21;103333.06;;;12.27;100.00
25430;BME280;13360;48.152;-1.788;2023-01-31T13:36:32;103340.09;;;12.30;100.00
25430;BME280;13360;48.152;-1.788;2023-01-31T13:39:06;103348.16;;;12.31;100.00
25430;BME280;13360;48.152;-1.788;2023-01-31T13:41:34;103342.13;;;12.34;100.00
25430;BME280;13360;48.152;-1.788;2023-01-31T13:44:01;103336.91;;;12.38;100.00
25430;BME280;13360;48.152;-1.788;2023-01-31T13:51:57;103344.84;;;12.46;100.00
25430;BME280;13360;48.152;-1.788;2023-01-31T13:57:01;103345.91;;;12.45;100.00
25430;BME280;13360;48.152;-1.788;2023-01-31T13:59:31;103337.00;;;12.43;100.00
25430;BME280;13360;48.152;-1.788;2023-01-31T14:02:04;103337.41;;;12.35;100.00
25430;BME280;13360;48.152;-1.788;2023-01-31T14:04:41;103334.41;;;12.36;100.00
25430;BME280;13360;48.152;-1.788;2023-01-31T14:07:13;103346.31;;;12.37;100.00
25430;BME280;13360;48.152;-1.788;2023-01-31T14:12:47;103303.81;;;12.31;100.00
25430;BME280;13360;48.152;-1.788;2023-01-31T14:15:49;103288.38;;;12.24;100.00
25430;BME280;13360;48.152;-1.788;2023-01-31T14:18:46;103308.63;;;12.24;100.00
25430;BME280;13360;48.152;-1.788;2023-01-31T14:21:55;103306.25;;;12.16;100.00
25430;BME280;13360;48.152;-1.788;2023-01-31T14:27:22;103323.72;;;12.16;100.00
25430;BME280;13360;48.152;-1.788;2023-01-31T14:30:14;103320.00;;;12.11;100.00
25430;BME280;13360;48.152;-1.788;2023-01-31T14:48:35;103370.91;;;12.33;100.00
25430;BME280;13360;48.152;-1.788;2023-01-31T14:59:34;103363.09;;;12.30;100.00